sensor_id;sensor_type;location;lat;lon;timestamp;P1;durP1;ratioP1;P2;durP2;ratioP2
7169;SDS011;3626;42.656;23.312;2022-10-16T00:00:06;19.10;;;9.35;;
7169;SDS011;3626;42.656;23.312;2022-10-16T00:00:13;18.03;;;9.10;;
7169;SDS011;3626;42.656;23.312;2022-10-16T00:00:19;17.00;;;9.20;;
7169;SDS011;3626;42.656;23.312;2022-10-16T00:00:25;16.52;;;9.05;;
7169;SDS011;3626;42.656;23.312;2022-10-16T00:00:31;16.50;;;9.00;;
7169;SDS011;3626;42.656;23.312;2022-10-16T00:00:38;16.23;;;9.07;;
7169;SDS011;3626;42.656;23.312;2022-10-16T00:00:45;15.90;;;9.07;;
7169;SDS011;3626;42.656;23.312;2022-10-16T00:00:51;14.80;;;9.00;;
7169;SDS011;3626;42.656;23.312;2022-10-16T00:00:57;14.05;;;8.85;;
7169;SDS011;3626;42.656;23.312;2022-10-16T00:01:07;13.67;;;8.60;;
7169;SDS011;3626;42.656;23.312;2022-10-16T00:01:14;14.39;;;8.84;;
7169;SDS011;3626;42.656;23.312;2022-10-16T00:01:21;14.83;;;8.90;;
7169;SDS011;3626;42.656;23.312;2022-10-16T00:01:29;14.35;;;8.90;;
7169;SDS011;3626;42.656;23.312;2022-10-16T00:01:36;14.70;;;8.90;;
7169;SDS011;3626;42.656;23.312;2022-10-16T00:01:41;15.48;;;8.88;;
7169;SDS011;3626;42.656;23.312;2022-10-16T00:01:47;16.80;;;9.10;;
7169;SDS011;3626;42.656;23.312;2022-10-16T00:01:54;16.83;;;9.03;;
7169;SDS011;3626;42.656;23.312;2022-10-16T00:02:00;17.60;;;9.23;;
7169;SDS011;3626;42.656;23.312;2022-10-16T00:02:05;18.23;;;9.32;;
7169;SDS011;3626;42.656;23.312;2022-10-16T00:02:11;17.42;;;9.15;;
7169;SDS011;3626;42.656;23.312;2022-10-16T00:02:17;16.98;;;9.05;;
7169;SDS011;3626;42.656;23.312;2022-10-16T00:02:24;17.23;;;9.20;;
7169;SDS011;3626;42.656;23.312;2022-10-16T00:02:30;18.05;;;9.33;;
7169;SDS011;3626;42.656;23.312;2022-10-16T00:02:36;18.50;;;9.27;;
7169;SDS011;3626;42.656;23.312;2022-10-16T00:02:41;17.40;;;9.15;;
7169;SDS011;3626;42.656;23.312;2022-10-16T00:02:47;17.00;;;9.10;;
7169;SDS011;3626;42.656;23.312;2022-10-16T00:02:53;17.27;;;9.27;;
7169;SDS011;3626;42.656;23.312;2022-10-16T00:02:58;16.92;;;9.25;;
7169;SDS011;3626;42.656;23.312;2022-10-16T00:03:04;16.42;;;9.43;;
7169;SDS011;3626;42.656;23.312;2022-10-16T00:03:10;16.77;;;9.50;;
7169;SDS011;3626;42.656;23.312;2022-10-16T00:03:16;17.17;;;9.60;;
7169;SDS011;3626;42.656;23.312;2022-10-16T00:03:22;16.75;;;9.40;;
7169;SDS011;3626;42.656;23.312;2022-10-16T00:03:28;16.83;;;9.48;;
7169;SDS011;3626;42.656;23.312;2022-10-16T00:03:35;15.70;;;9.40;;
7169;SDS011;3626;42.656;23.312;2022-10-16T00:03:41;15.80;;;9.45;;
7169;SDS011;3626;42.656;23.312;2022-10-16T00:03:48;14.74;;;9.46;;
7169;SDS011;3626;42.656;23.312;2022-10-16T00:03:54;14.03;;;9.23;;
7169;SDS011;3626;42.656;23.312;2022-10-16T00:04:01;14.30;;;9.30;;
7169;SDS011;3626;42.656;23.312;2022-10-16T00:04:08;14.10;;;9.20;;
7169;SDS011;3626;42.656;23.312;2022-10-16T00:04:14;14.03;;;9.20;;
7169;SDS011;3626;42.656;23.312;2022-10-16T00:04:19;14.00;;;9.27;;
7169;SDS011;3626;42.656;23.312;2022-10-16T00:04:25;14.13;;;9.40;;
7169;SDS011;3626;42.656;23.312;2022-10-16T00:04:31;14.40;;;9.43;;
7169;SDS011;3626;42.656;23.312;2022-10-16T00:04:37;14.95;;;9.68;;
7169;SDS011;3626;42.656;23.312;2022-10-16T00:04:42;15.73;;;10.00;;
7169;SDS011;3626;42.656;23.312;2022-10-16T00:04:49;16.03;;;10.00;;
7169;SDS011;3626;42.656;23.312;2022-10-16T00:04:55;16.08;;;10.07;;
7169;SDS011;3626;42.656;23.312;2022-10-16T00:05:01;15.73;;;9.82;;
7169;SDS011;3626;42.656;23.312;2022-10-16T00:05:06;16.37;;;9.70;;
7169;SDS011;3626;42.656;23.312;2022-10-16T00:05:12;17.85;;;9.90;;
7169;SDS011;3626;42.656;23.312;2022-10-16T00:05:18;18.13;;;9.82;;
7169;SDS011;3626;42.656;23.312;2022-10-16T00:05:24;17.88;;;9.63;;
7169;SDS011;3626;42.656;23.312;2022-10-16T00:05:29;17.80;;;9.60;;
7169;SDS011;3626;42.656;23.312;2022-10-16T00:05:39;17.47;;;9.47;;
7169;SDS011;3626;42.656;23.312;2022-10-16T00:05:46;16.25;;;8.95;;
7169;SDS011;3626;42.656;23.312;2022-10-16T00:05:52;17.67;;;8.93;;
7169;SDS011;3626;42.656;23.312;2022-10-16T00:05:58;17.80;;;8.90;;
7169;SDS011;3626;42.656;23.312;2022-10-16T00:06:05;18.03;;;9.37;;
7169;SDS011;3626;42.656;23.312;2022-10-16T00:06:12;19.57;;;9.30;;
7169;SDS011;3626;42.656;23.312;2022-10-16T00:06:19;20.34;;;9.38;;
7169;SDS011;3626;42.656;23.312;2022-10-16T00:06:26;20.10;;;9.35;;
7169;SDS011;3626;42.656;23.312;2022-10-16T00:06:34;19.40;;;9.13;;
7169;SDS011;3626;42.656;23.312;2022-10-16T00:06:39;19.60;;;9.00;;
7169;SDS011;3626;42.656;23.312;2022-10-16T00:06:45;20.80;;;9.15;;
7169;SDS011;3626;42.656;23.312;2022-10-16T00:06:51;20.15;;;9.30;;
7169;SDS011;3626;42.656;23.312;2022-10-16T00:06:57;20.30;;;9.57;;
7169;SDS011;3626;42.656;23.312;2022-10-16T00:07:02;21.17;;;9.68;;
7169;SDS011;3626;42.656;23.312;2022-10-16T00:07:08;19.20;;;9.47;;
7169;SDS011;3626;42.656;23.312;2022-10-16T00:07:14;16.90;;;9.50;;
7169;SDS011;3626;42.656;23.312;2022-10-16T00:07:20;16.45;;;9.55;;
7169;SDS011;3626;42.656;23.312;2022-10-16T00:07:25;16.70;;;9.67;;
7169;SDS011;3626;42.656;23.312;2022-10-16T00:07:32;17.37;;;9.83;;
7169;SDS011;3626;42.656;23.312;2022-10-16T00:07:38;17.42;;;10.05;;
7169;SDS011;3626;42.656;23.312;2022-10-16T00:07:44;17.17;;;10.27;;
7169;SDS011;3626;42.656;23.312;2022-10-16T00:07:49;16.65;;;10.13;;
7169;SDS011;3626;42.656;23.312;2022-10-16T00:07:55;16.40;;;10.03;;
7169;SDS011;3626;42.656;23.312;2022-10-16T00:08:01;15.60;;;9.75;;
7169;SDS011;3626;42.656;23.312;2022-10-16T00:08:08;15.46;;;9.66;;
7169;SDS011;3626;42.656;23.312;2022-10-16T00:08:14;15.42;;;9.56;;
7169;SDS011;3626;42.656;23.312;2022-10-16T00:08:20;15.77;;;9.70;;
7169;SDS011;3626;42.656;23.312;2022-10-16T00:08:26;15.98;;;9.77;;
7169;SDS011;3626;42.656;23.312;2022-10-16T00:08:33;15.90;;;9.72;;
7169;SDS011;3626;42.656;23.312;2022-10-16T00:08:39;15.94;;;9.56;;
7169;SDS011;3626;42.656;23.312;2022-10-16T00:08:46;16.20;;;9.47;;
7169;SDS011;3626;42.656;23.312;2022-10-16T00:08:52;16.20;;;9.60;;
7169;SDS011;3626;42.656;23.312;2022-10-16T00:08:58;16.58;;;9.63;;
7169;SDS011;3626;42.656;23.312;2022-10-16T00:09:04;16.26;;;9.68;;
7169;SDS011;3626;42.656;23.312;2022-10-16T00:09:10;16.13;;;9.75;;
7169;SDS011;3626;42.656;23.312;2022-10-16T00:09:17;15.86;;;9.50;;
7169;SDS011;3626;42.656;23.312;2022-10-16T00:09:23;15.80;;;9.43;;
7169;SDS011;3626;42.656;23.312;2022-10-16T00:09:29;15.80;;;9.57;;
7169;SDS011;3626;42.656;23.312;2022-10-16T00:09:34;16.30;;;9.80;;
7169;SDS011;3626;42.656;23.312;2022-10-16T00:09:40;16.80;;;9.98;;
7169;SDS011;3626;42.656;23.312;2022-10-16T00:09:46;16.93;;;10.00;;
7169;SDS011;3626;42.656;23.312;2022-10-16T00:09:52;17.52;;;10.02;;
7169;SDS011;3626;42.656;23.312;2022-10-16T00:09:57;17.98;;;10.00;;
7169;SDS011;3626;42.656;23.312;2022-10-16T00:10:03;18.70;;;10.05;;
7169;SDS011;3626;42.656;23.312;2022-10-16T00:10:09;19.05;;;10.05;;
7169;SDS011;3626;42.656;23.312;2022-10-16T00:10:15;19.00;;;10.07;;
7169;SDS011;3626;42.656;23.312;2022-10-16T00:10:21;18.88;;;10.02;;
7169;SDS011;3626;42.656;23.312;2022-10-16T00:10:27;18.80;;;10.03;;
7169;SDS011;3626;42.656;23.312;2022-10-16T00:10:33;18.75;;;9.80;;
7169;SDS011;3626;42.656;23.312;2022-10-16T00:10:39;18.00;;;9.67;;
7169;SDS011;3626;42.656;23.312;2022-10-16T00:10:45;17.90;;;9.50;;
7169;SDS011;3626;42.656;23.312;2022-10-16T00:10:52;17.94;;;9.38;;
7169;SDS011;3626;42.656;23.312;2022-10-16T00:11:01;17.13;;;9.43;;
7169;SDS011;3626;42.656;23.312;2022-10-16T00:11:09;17.46;;;9.73;;
7169;SDS011;3626;42.656;23.312;2022-10-16T00:11:17;17.17;;;9.73;;
7169;SDS011;3626;42.656;23.312;2022-10-16T00:11:25;17.08;;;9.67;;
7169;SDS011;3626;42.656;23.312;2022-10-16T00:11:33;16.45;;;9.63;;
7169;SDS011;3626;42.656;23.312;2022-10-16T00:11:41;16.47;;;9.70;;
7169;SDS011;3626;42.656;23.312;2022-10-16T00:11:47;15.52;;;9.70;;
7169;SDS011;3626;42.656;23.312;2022-10-16T00:11:53;15.52;;;9.77;;
7169;SDS011;3626;42.656;23.312;2022-10-16T00:12:00;14.90;;;9.50;;
7169;SDS011;3626;42.656;23.312;2022-10-16T00:12:05;14.40;;;9.30;;
7169;SDS011;3626;42.656;23.312;2022-10-16T00:12:12;14.33;;;9.13;;
7169;SDS011;3626;42.656;23.312;2022-10-16T00:12:17;14.25;;;9.10;;
7169;SDS011;3626;42.656;23.312;2022-10-16T00:12:23;14.77;;;9.35;;
7169;SDS011;3626;42.656;23.312;2022-10-16T00:12:29;15.50;;;9.40;;
7169;SDS011;3626;42.656;23.312;2022-10-16T00:12:35;15.97;;;9.60;;
7169;SDS011;3626;42.656;23.312;2022-10-16T00:12:40;16.02;;;9.73;;
7169;SDS011;3626;42.656;23.312;2022-10-16T00:12:46;15.93;;;9.80;;
7169;SDS011;3626;42.656;23.312;2022-10-16T00:12:52;15.77;;;9.80;;
7169;SDS011;3626;42.656;23.312;2022-10-16T00:12:57;16.17;;;9.97;;
7169;SDS011;3626;42.656;23.312;2022-10-16T00:13:04;16.47;;;10.07;;
7169;SDS011;3626;42.656;23.312;2022-10-16T00:13:10;16.26;;;10.04;;
7169;SDS011;3626;42.656;23.312;2022-10-16T00:13:16;16.40;;;10.30;;
7169;SDS011;3626;42.656;23.312;2022-10-16T00:13:23;15.73;;;9.97;;
7169;SDS011;3626;42.656;23.312;2022-10-16T00:13:29;14.80;;;9.88;;
7169;SDS011;3626;42.656;23.312;2022-10-16T00:13:35;14.67;;;9.67;;
7169;SDS011;3626;42.656;23.312;2022-10-16T00:13:44;15.27;;;9.43;;
7169;SDS011;3626;42.656;23.312;2022-10-16T00:13:51;15.10;;;9.20;;
7169;SDS011;3626;42.656;23.312;2022-10-16T00:14:01;15.17;;;9.17;;
7169;SDS011;3626;42.656;23.312;2022-10-16T00:14:11;14.80;;;9.00;;
7169;SDS011;3626;42.656;23.312;2022-10-16T00:14:18;15.00;;;8.87;;
7169;SDS011;3626;42.656;23.312;2022-10-16T00:14:24;15.48;;;9.00;;
7169;SDS011;3626;42.656;23.312;2022-10-16T00:14:30;15.50;;;9.10;;
7169;SDS011;3626;42.656;23.312;2022-10-16T00:14:35;15.17;;;8.93;;
7169;SDS011;3626;42.656;23.312;2022-10-16T00:14:41;14.52;;;9.10;;
7169;SDS011;3626;42.656;23.312;2022-10-16T00:14:49;14.60;;;9.23;;
7169;SDS011;3626;42.656;23.312;2022-10-16T00:14:54;14.97;;;9.30;;
7169;SDS011;3626;42.656;23.312;2022-10-16T00:15:00;14.50;;;9.05;;
7169;SDS011;3626;42.656;23.312;2022-10-16T00:15:07;14.88;;;9.06;;
7169;SDS011;3626;42.656;23.312;2022-10-16T00:15:13;16.20;;;9.17;;
7169;SDS011;3626;42.656;23.312;2022-10-16T00:15:19;17.45;;;9.23;;
7169;SDS011;3626;42.656;23.312;2022-10-16T00:15:25;18.88;;;9.25;;
7169;SDS011;3626;42.656;23.312;2022-10-16T00:15:32;19.00;;;9.40;;
7169;SDS011;3626;42.656;23.312;2022-10-16T00:15:38;19.57;;;9.50;;
7169;SDS011;3626;42.656;23.312;2022-10-16T00:15:44;20.42;;;9.40;;
7169;SDS011;3626;42.656;23.312;2022-10-16T00:15:52;19.53;;;9.33;;
7169;SDS011;3626;42.656;23.312;2022-10-16T00:16:01;19.83;;;9.54;;
7169;SDS011;3626;42.656;23.312;2022-10-16T00:16:07;20.10;;;9.80;;
7169;SDS011;3626;42.656;23.312;2022-10-16T00:16:14;18.27;;;9.63;;
7169;SDS011;3626;42.656;23.312;2022-10-16T00:16:21;16.17;;;9.60;;
7169;SDS011;3626;42.656;23.312;2022-10-16T00:16:28;15.93;;;9.70;;
7169;SDS011;3626;42.656;23.312;2022-10-16T00:16:34;16.67;;;9.60;;
7169;SDS011;3626;42.656;23.312;2022-10-16T00:16:40;15.77;;;9.50;;
7169;SDS011;3626;42.656;23.312;2022-10-16T00:16:46;15.52;;;9.52;;
7169;SDS011;3626;42.656;23.312;2022-10-16T00:16:52;15.02;;;9.30;;
7169;SDS011;3626;42.656;23.312;2022-10-16T00:16:57;15.15;;;9.30;;
7169;SDS011;3626;42.656;23.312;2022-10-16T00:17:03;15.63;;;9.20;;
7169;SDS011;3626;42.656;23.312;2022-10-16T00:17:09;16.58;;;9.20;;
7169;SDS011;3626;42.656;23.312;2022-10-16T00:17:15;17.15;;;9.15;;
7169;SDS011;3626;42.656;23.312;2022-10-16T00:17:20;17.55;;;9.10;;
7169;SDS011;3626;42.656;23.312;2022-10-16T00:17:28;17.43;;;8.93;;
7169;SDS011;3626;42.656;23.312;2022-10-16T00:17:35;17.20;;;8.93;;
7169;SDS011;3626;42.656;23.312;2022-10-16T00:17:41;17.88;;;9.18;;
7169;SDS011;3626;42.656;23.312;2022-10-16T00:17:47;17.98;;;9.20;;
7169;SDS011;3626;42.656;23.312;2022-10-16T00:17:53;18.18;;;9.10;;
7169;SDS011;3626;42.656;23.312;2022-10-16T00:17:59;17.83;;;9.07;;
7169;SDS011;3626;42.656;23.312;2022-10-16T00:18:05;16.90;;;9.02;;
7169;SDS011;3626;42.656;23.312;2022-10-16T00:18:11;16.83;;;8.93;;
7169;SDS011;3626;42.656;23.312;2022-10-16T00:18:17;16.70;;;8.97;;
7169;SDS011;3626;42.656;23.312;2022-10-16T00:18:23;16.77;;;8.98;;
7169;SDS011;3626;42.656;23.312;2022-10-16T00:18:29;16.60;;;8.83;;
7169;SDS011;3626;42.656;23.312;2022-10-16T00:18:35;15.90;;;8.77;;
7169;SDS011;3626;42.656;23.312;2022-10-16T00:18:42;16.03;;;8.53;;
7169;SDS011;3626;42.656;23.312;2022-10-16T00:18:48;16.00;;;8.57;;
7169;SDS011;3626;42.656;23.312;2022-10-16T00:18:54;15.90;;;8.77;;
7169;SDS011;3626;42.656;23.312;2022-10-16T00:19:00;15.65;;;8.68;;
7169;SDS011;3626;42.656;23.312;2022-10-16T00:19:07;14.77;;;8.43;;
7169;SDS011;3626;42.656;23.312;2022-10-16T00:19:14;14.36;;;8.36;;
7169;SDS011;3626;42.656;23.312;2022-10-16T00:19:19;14.15;;;8.40;;
7169;SDS011;3626;42.656;23.312;2022-10-16T00:19:25;13.88;;;8.32;;
7169;SDS011;3626;42.656;23.312;2022-10-16T00:19:31;13.57;;;8.30;;
7169;SDS011;3626;42.656;23.312;2022-10-16T00:19:37;13.68;;;8.20;;
7169;SDS011;3626;42.656;23.312;2022-10-16T00:19:42;12.52;;;8.10;;
7169;SDS011;3626;42.656;23.312;2022-10-16T00:19:48;12.85;;;8.10;;
7169;SDS011;3626;42.656;23.312;2022-10-16T00:19:54;12.45;;;7.90;;
7169;SDS011;3626;42.656;23.312;2022-10-16T00:20:00;14.80;;;8.00;;
7169;SDS011;3626;42.656;23.312;2022-10-16T00:20:06;16.80;;;8.07;;
7169;SDS011;3626;42.656;23.312;2022-10-16T00:20:12;16.67;;;8.10;;
7169;SDS011;3626;42.656;23.312;2022-10-16T00:20:18;17.20;;;8.30;;
7169;SDS011;3626;42.656;23.312;2022-10-16T00:20:24;17.65;;;8.25;;
7169;SDS011;3626;42.656;23.312;2022-10-16T00:20:33;18.05;;;8.35;;
7169;SDS011;3626;42.656;23.312;2022-10-16T00:20:39;18.07;;;8.43;;
7169;SDS011;3626;42.656;23.312;2022-10-16T00:20:45;18.25;;;8.48;;
7169;SDS011;3626;42.656;23.312;2022-10-16T00:20:51;18.40;;;8.40;;
7169;SDS011;3626;42.656;23.312;2022-10-16T00:21:01;18.35;;;8.38;;
7169;SDS011;3626;42.656;23.312;2022-10-16T00:21:08;15.80;;;8.42;;
7169;SDS011;3626;42.656;23.312;2022-10-16T00:21:18;15.23;;;8.50;;
7169;SDS011;3626;42.656;23.312;2022-10-16T00:21:26;16.06;;;8.49;;
7169;SDS011;3626;42.656;23.312;2022-10-16T00:21:34;17.91;;;8.46;;
7169;SDS011;3626;42.656;23.312;2022-10-16T00:21:39;18.35;;;8.32;;
7169;SDS011;3626;42.656;23.312;2022-10-16T00:21:47;18.82;;;8.45;;
7169;SDS011;3626;42.656;23.312;2022-10-16T00:21:53;19.97;;;8.83;;
7169;SDS011;3626;42.656;23.312;2022-10-16T00:21:58;20.08;;;9.00;;
7169;SDS011;3626;42.656;23.312;2022-10-16T00:22:04;19.90;;;8.95;;
7169;SDS011;3626;42.656;23.312;2022-10-16T00:22:10;19.63;;;8.90;;
7169;SDS011;3626;42.656;23.312;2022-10-16T00:22:16;19.90;;;8.77;;
7169;SDS011;3626;42.656;23.312;2022-10-16T00:22:21;20.65;;;8.68;;
7169;SDS011;3626;42.656;23.312;2022-10-16T00:22:27;19.50;;;8.60;;
7169;SDS011;3626;42.656;23.312;2022-10-16T00:22:33;18.40;;;8.65;;
7169;SDS011;3626;42.656;23.312;2022-10-16T00:22:39;17.67;;;8.60;;
7169;SDS011;3626;42.656;23.312;2022-10-16T00:22:45;17.47;;;8.57;;
7169;SDS011;3626;42.656;23.312;2022-10-16T00:22:51;16.10;;;8.40;;
7169;SDS011;3626;42.656;23.312;2022-10-16T00:22:56;16.00;;;8.30;;
7169;SDS011;3626;42.656;23.312;2022-10-16T00:23:02;15.98;;;8.45;;
7169;SDS011;3626;42.656;23.312;2022-10-16T00:23:08;16.38;;;8.57;;
7169;SDS011;3626;42.656;23.312;2022-10-16T00:23:15;15.60;;;8.50;;
7169;SDS011;3626;42.656;23.312;2022-10-16T00:23:21;13.52;;;8.50;;
7169;SDS011;3626;42.656;23.312;2022-10-16T00:23:27;13.10;;;8.40;;
7169;SDS011;3626;42.656;23.312;2022-10-16T00:23:33;13.35;;;8.40;;
7169;SDS011;3626;42.656;23.312;2022-10-16T00:23:39;13.73;;;8.55;;
7169;SDS011;3626;42.656;23.312;2022-10-16T00:23:45;13.80;;;8.50;;
7169;SDS011;3626;42.656;23.312;2022-10-16T00:23:51;13.70;;;8.50;;
7169;SDS011;3626;42.656;23.312;2022-10-16T00:23:59;13.40;;;8.18;;
7169;SDS011;3626;42.656;23.312;2022-10-16T00:24:06;12.93;;;8.02;;
7169;SDS011;3626;42.656;23.312;2022-10-16T00:24:13;12.78;;;7.98;;
7169;SDS011;3626;42.656;23.312;2022-10-16T00:24:19;13.68;;;7.90;;
7169;SDS011;3626;42.656;23.312;2022-10-16T00:24:25;14.68;;;8.00;;
7169;SDS011;3626;42.656;23.312;2022-10-16T00:24:32;14.66;;;7.96;;
7169;SDS011;3626;42.656;23.312;2022-10-16T00:24:37;14.43;;;7.87;;
7169;SDS011;3626;42.656;23.312;2022-10-16T00:24:43;14.38;;;7.78;;
7169;SDS011;3626;42.656;23.312;2022-10-16T00:24:49;14.05;;;7.57;;
7169;SDS011;3626;42.656;23.312;2022-10-16T00:24:55;13.48;;;7.40;;
7169;SDS011;3626;42.656;23.312;2022-10-16T00:25:00;13.98;;;7.50;;
7169;SDS011;3626;42.656;23.312;2022-10-16T00:25:06;14.27;;;7.40;;
7169;SDS011;3626;42.656;23.312;2022-10-16T00:25:12;14.40;;;7.40;;
7169;SDS011;3626;42.656;23.312;2022-10-16T00:25:18;14.18;;;7.47;;
7169;SDS011;3626;42.656;23.312;2022-10-16T00:25:24;13.32;;;7.50;;
7169;SDS011;3626;42.656;23.312;2022-10-16T00:25:29;13.47;;;7.47;;
7169;SDS011;3626;42.656;23.312;2022-10-16T00:25:37;13.45;;;7.43;;
7169;SDS011;3626;42.656;23.312;2022-10-16T00:25:43;13.50;;;7.60;;
7169;SDS011;3626;42.656;23.312;2022-10-16T00:25:55;13.68;;;7.63;;
7169;SDS011;3626;42.656;23.312;2022-10-16T00:26:03;13.89;;;7.88;;
7169;SDS011;3626;42.656;23.312;2022-10-16T00:26:12;13.31;;;7.99;;
7169;SDS011;3626;42.656;23.312;2022-10-16T00:26:22;13.43;;;7.89;;
7169;SDS011;3626;42.656;23.312;2022-10-16T00:26:29;13.93;;;7.93;;
7169;SDS011;3626;42.656;23.312;2022-10-16T00:26:37;14.33;;;8.07;;
7169;SDS011;3626;42.656;23.312;2022-10-16T00:26:43;14.20;;;8.10;;
7169;SDS011;3626;42.656;23.312;2022-10-16T00:26:49;14.20;;;8.13;;
7169;SDS011;3626;42.656;23.312;2022-10-16T00:26:55;14.00;;;7.90;;
7169;SDS011;3626;42.656;23.312;2022-10-16T00:27:01;14.17;;;7.90;;
7169;SDS011;3626;42.656;23.312;2022-10-16T00:27:07;14.70;;;8.00;;
7169;SDS011;3626;42.656;23.312;2022-10-16T00:27:12;14.32;;;7.93;;
7169;SDS011;3626;42.656;23.312;2022-10-16T00:27:18;14.45;;;8.00;;
7169;SDS011;3626;42.656;23.312;2022-10-16T00:27:25;14.93;;;8.07;;
7169;SDS011;3626;42.656;23.312;2022-10-16T00:27:31;13.65;;;7.90;;
7169;SDS011;3626;42.656;23.312;2022-10-16T00:27:37;13.25;;;7.78;;
7169;SDS011;3626;42.656;23.312;2022-10-16T00:27:42;13.55;;;7.75;;
7169;SDS011;3626;42.656;23.312;2022-10-16T00:27:48;13.27;;;7.70;;
7169;SDS011;3626;42.656;23.312;2022-10-16T00:27:54;13.30;;;7.88;;
7169;SDS011;3626;42.656;23.312;2022-10-16T00:28:00;13.25;;;7.85;;
7169;SDS011;3626;42.656;23.312;2022-10-16T00:28:06;12.77;;;7.70;;
7169;SDS011;3626;42.656;23.312;2022-10-16T00:28:12;13.37;;;7.60;;
7169;SDS011;3626;42.656;23.312;2022-10-16T00:28:17;13.25;;;7.53;;
7169;SDS011;3626;42.656;23.312;2022-10-16T00:28:23;12.80;;;7.50;;
7169;SDS011;3626;42.656;23.312;2022-10-16T00:28:29;12.70;;;7.60;;
7169;SDS011;3626;42.656;23.312;2022-10-16T00:28:36;12.83;;;7.53;;
7169;SDS011;3626;42.656;23.312;2022-10-16T00:28:41;12.52;;;7.40;;
7169;SDS011;3626;42.656;23.312;2022-10-16T00:28:48;12.85;;;7.40;;
7169;SDS011;3626;42.656;23.312;2022-10-16T00:28:54;12.77;;;7.40;;
7169;SDS011;3626;42.656;23.312;2022-10-16T00:29:00;13.02;;;7.45;;
7169;SDS011;3626;42.656;23.312;2022-10-16T00:29:07;13.20;;;7.60;;
7169;SDS011;3626;42.656;23.312;2022-10-16T00:29:14;12.70;;;7.53;;
7169;SDS011;3626;42.656;23.312;2022-10-16T00:29:19;12.40;;;7.35;;
7169;SDS011;3626;42.656;23.312;2022-10-16T00:29:25;12.23;;;7.30;;
7169;SDS011;3626;42.656;23.312;2022-10-16T00:29:31;12.27;;;7.30;;
7169;SDS011;3626;42.656;23.312;2022-10-16T00:29:37;12.25;;;7.38;;
7169;SDS011;3626;42.656;23.312;2022-10-16T00:29:42;12.90;;;7.53;;
7169;SDS011;3626;42.656;23.312;2022-10-16T00:29:49;13.23;;;7.50;;
7169;SDS011;3626;42.656;23.312;2022-10-16T00:29:55;13.35;;;7.40;;
7169;SDS011;3626;42.656;23.312;2022-10-16T00:30:01;13.02;;;7.32;;
7169;SDS011;3626;42.656;23.312;2022-10-16T00:30:07;13.45;;;7.32;;
7169;SDS011;3626;42.656;23.312;2022-10-16T00:30:14;14.18;;;7.38;;
7169;SDS011;3626;42.656;23.312;2022-10-16T00:30:19;14.23;;;7.53;;
7169;SDS011;3626;42.656;23.312;2022-10-16T00:30:25;14.32;;;7.47;;
7169;SDS011;3626;42.656;23.312;2022-10-16T00:30:32;14.10;;;7.30;;
7169;SDS011;3626;42.656;23.312;2022-10-16T00:30:39;13.90;;;7.14;;
7169;SDS011;3626;42.656;23.312;2022-10-16T00:30:45;13.07;;;7.27;;
7169;SDS011;3626;42.656;23.312;2022-10-16T00:30:51;12.85;;;7.30;;
7169;SDS011;3626;42.656;23.312;2022-10-16T00:30:57;13.20;;;7.40;;
7169;SDS011;3626;42.656;23.312;2022-10-16T00:31:03;13.27;;;7.47;;
7169;SDS011;3626;42.656;23.312;2022-10-16T00:31:10;13.00;;;7.68;;
7169;SDS011;3626;42.656;23.312;2022-10-16T00:31:17;13.37;;;8.10;;
7169;SDS011;3626;42.656;23.312;2022-10-16T00:31:24;14.20;;;8.52;;
7169;SDS011;3626;42.656;23.312;2022-10-16T00:31:30;15.55;;;9.02;;
7169;SDS011;3626;42.656;23.312;2022-10-16T00:31:36;16.58;;;9.65;;
7169;SDS011;3626;42.656;23.312;2022-10-16T00:31:43;17.26;;;10.18;;
7169;SDS011;3626;42.656;23.312;2022-10-16T00:31:48;17.77;;;10.60;;
7169;SDS011;3626;42.656;23.312;2022-10-16T00:31:54;19.08;;;11.48;;
7169;SDS011;3626;42.656;23.312;2022-10-16T00:32:00;19.88;;;12.20;;
7169;SDS011;3626;42.656;23.312;2022-10-16T00:32:06;20.75;;;12.85;;
7169;SDS011;3626;42.656;23.312;2022-10-16T00:32:11;20.47;;;12.97;;
7169;SDS011;3626;42.656;23.312;2022-10-16T00:32:17;20.67;;;13.15;;
7169;SDS011;3626;42.656;23.312;2022-10-16T00:32:23;20.83;;;13.38;;
7169;SDS011;3626;42.656;23.312;2022-10-16T00:32:31;21.38;;;13.93;;
7169;SDS011;3626;42.656;23.312;2022-10-16T00:32:36;20.93;;;14.13;;
7169;SDS011;3626;42.656;23.312;2022-10-16T00:32:42;21.27;;;14.32;;
7169;SDS011;3626;42.656;23.312;2022-10-16T00:32:48;22.33;;;14.65;;
7169;SDS011;3626;42.656;23.312;2022-10-16T00:32:53;22.03;;;14.60;;
7169;SDS011;3626;42.656;23.312;2022-10-16T00:32:59;22.33;;;14.52;;
7169;SDS011;3626;42.656;23.312;2022-10-16T00:33:05;22.65;;;14.60;;
7169;SDS011;3626;42.656;23.312;2022-10-16T00:33:11;23.00;;;14.77;;
7169;SDS011;3626;42.656;23.312;2022-10-16T00:33:16;23.33;;;15.07;;
7169;SDS011;3626;42.656;23.312;2022-10-16T00:33:22;23.50;;;15.18;;
7169;SDS011;3626;42.656;23.312;2022-10-16T00:33:29;23.53;;;15.20;;
7169;SDS011;3626;42.656;23.312;2022-10-16T00:33:35;24.55;;;15.70;;
7169;SDS011;3626;42.656;23.312;2022-10-16T00:33:42;25.82;;;16.36;;
7169;SDS011;3626;42.656;23.312;2022-10-16T00:33:48;28.23;;;17.10;;
7169;SDS011;3626;42.656;23.312;2022-10-16T00:33:55;31.20;;;18.40;;
7169;SDS011;3626;42.656;23.312;2022-10-16T00:34:02;32.50;;;19.10;;
7169;SDS011;3626;42.656;23.312;2022-10-16T00:34:07;33.33;;;19.95;;
7169;SDS011;3626;42.656;23.312;2022-10-16T00:34:13;34.90;;;20.85;;
7169;SDS011;3626;42.656;23.312;2022-10-16T00:34:19;36.38;;;21.83;;
7169;SDS011;3626;42.656;23.312;2022-10-16T00:34:25;37.72;;;22.83;;
7169;SDS011;3626;42.656;23.312;2022-10-16T00:34:30;38.63;;;23.50;;
7169;SDS011;3626;42.656;23.312;2022-10-16T00:34:36;39.22;;;23.75;;
7169;SDS011;3626;42.656;23.312;2022-10-16T00:34:42;39.50;;;23.90;;
7169;SDS011;3626;42.656;23.312;2022-10-16T00:34:48;37.35;;;23.73;;
7169;SDS011;3626;42.656;23.312;2022-10-16T00:34:53;34.90;;;22.73;;
7169;SDS011;3626;42.656;23.312;2022-10-16T00:34:59;33.23;;;22.03;;
7169;SDS011;3626;42.656;23.312;2022-10-16T00:35:05;32.40;;;21.27;;
7169;SDS011;3626;42.656;23.312;2022-10-16T00:35:11;31.84;;;20.16;;
7169;SDS011;3626;42.656;23.312;2022-10-16T00:35:18;30.73;;;19.17;;
7169;SDS011;3626;42.656;23.312;2022-10-16T00:35:24;29.27;;;18.20;;
7169;SDS011;3626;42.656;23.312;2022-10-16T00:35:30;28.13;;;17.40;;
7169;SDS011;3626;42.656;23.312;2022-10-16T00:35:36;27.02;;;16.60;;
7169;SDS011;3626;42.656;23.312;2022-10-16T00:35:42;26.17;;;16.00;;
7169;SDS011;3626;42.656;23.312;2022-10-16T00:35:48;25.58;;;15.45;;
7169;SDS011;3626;42.656;23.312;2022-10-16T00:35:57;26.87;;;15.40;;
7169;SDS011;3626;42.656;23.312;2022-10-16T00:36:04;26.53;;;15.27;;
7169;SDS011;3626;42.656;23.312;2022-10-16T00:36:11;26.23;;;15.80;;
7169;SDS011;3626;42.656;23.312;2022-10-16T00:36:19;26.66;;;16.28;;
7169;SDS011;3626;42.656;23.312;2022-10-16T00:36:26;27.37;;;16.70;;
7169;SDS011;3626;42.656;23.312;2022-10-16T00:36:33;27.66;;;16.98;;
7169;SDS011;3626;42.656;23.312;2022-10-16T00:36:39;27.80;;;17.13;;
7169;SDS011;3626;42.656;23.312;2022-10-16T00:36:44;28.38;;;17.38;;
7169;SDS011;3626;42.656;23.312;2022-10-16T00:36:50;29.60;;;18.52;;
7169;SDS011;3626;42.656;23.312;2022-10-16T00:36:56;29.70;;;19.33;;
7169;SDS011;3626;42.656;23.312;2022-10-16T00:37:02;31.67;;;20.70;;
7169;SDS011;3626;42.656;23.312;2022-10-16T00:37:08;34.40;;;22.13;;
7169;SDS011;3626;42.656;23.312;2022-10-16T00:37:14;36.35;;;23.25;;
7169;SDS011;3626;42.656;23.312;2022-10-16T00:37:19;39.63;;;24.92;;
7169;SDS011;3626;42.656;23.312;2022-10-16T00:37:25;41.60;;;25.95;;
7169;SDS011;3626;42.656;23.312;2022-10-16T00:37:31;44.40;;;27.45;;
7169;SDS011;3626;42.656;23.312;2022-10-16T00:37:37;46.10;;;28.63;;
7169;SDS011;3626;42.656;23.312;2022-10-16T00:37:43;49.03;;;30.10;;
7169;SDS011;3626;42.656;23.312;2022-10-16T00:37:48;50.95;;;31.15;;
7169;SDS011;3626;42.656;23.312;2022-10-16T00:37:54;51.88;;;31.73;;